createdAt,value
2023-03-29T00:00:25.344Z,16.65
2023-03-29T00:01:35.652Z,16.76
2023-03-29T00:02:26.549Z,16.77
2023-03-29T00:03:25.397Z,16.82
2023-03-29T00:04:25.306Z,16.80
2023-03-29T00:05:25.307Z,16.92
2023-03-29T00:06:25.281Z,17.30
2023-03-29T00:07:25.268Z,17.45
2023-03-29T00:08:25.257Z,17.57
2023-03-29T00:09:25.276Z,18.04
2023-03-29T00:10:25.282Z,17.67
2023-03-29T00:11:25.325Z,18.06
2023-03-29T00:12:25.384Z,17.59
2023-03-29T00:13:25.440Z,17.59
2023-03-29T00:14:25.503Z,17.88
2023-03-29T00:15:25.564Z,18.24
2023-03-29T00:16:25.676Z,18.10
2023-03-29T00:17:25.723Z,17.70
2023-03-29T00:18:25.730Z,17.52
2023-03-29T00:19:25.794Z,17.30
2023-03-29T00:20:25.852Z,16.55
2023-03-29T00:21:25.903Z,16.83
2023-03-29T00:22:25.970Z,16.54
2023-03-29T00:23:26.010Z,16.34
2023-03-29T00:24:26.118Z,16.19
2023-03-29T00:25:26.916Z,16.18
2023-03-29T00:26:26.200Z,15.46
2023-03-29T00:27:26.253Z,15.10
2023-03-29T00:28:26.311Z,15.04
2023-03-29T00:29:26.354Z,15.13
2023-03-29T00:30:26.405Z,15.25
2023-03-29T00:31:26.527Z,15.89
2023-03-29T00:32:26.951Z,15.41
2023-03-29T00:33:26.539Z,15.89
2023-03-29T00:34:26.592Z,15.67
2023-03-29T00:35:26.683Z,15.14
2023-03-29T00:36:26.686Z,15.41
2023-03-29T00:37:26.824Z,15.02
2023-03-29T00:38:26.820Z,15.10
2023-03-29T00:39:26.876Z,15.16
2023-03-29T00:40:26.935Z,15.78
2023-03-29T00:41:26.998Z,15.62
2023-03-29T00:42:27.063Z,15.76
2023-03-29T00:43:27.145Z,15.79
2023-03-29T00:44:27.176Z,15.56
2023-03-29T00:45:27.240Z,15.80
2023-03-29T00:46:27.333Z,15.30
2023-03-29T00:47:27.410Z,14.77
2023-03-29T00:48:27.434Z,14.82
2023-03-29T00:49:27.494Z,14.82
2023-03-29T00:50:27.551Z,14.95
2023-03-29T00:51:27.612Z,14.90
2023-03-29T00:52:27.673Z,14.92
2023-03-29T00:53:27.723Z,14.54
2023-03-29T00:54:27.777Z,14.46
2023-03-29T00:55:27.854Z,14.51
2023-03-29T00:56:27.905Z,14.40
2023-03-29T00:57:28.032Z,14.40
2023-03-29T00:58:28.062Z,14.35
2023-03-29T00:59:28.088Z,14.03
2023-03-29T01:00:28.157Z,14.24
2023-03-29T01:01:28.348Z,14.35
2023-03-29T01:02:28.311Z,14.28
2023-03-29T01:03:28.954Z,13.98
2023-03-29T01:04:28.478Z,14.13
2023-03-29T01:05:28.456Z,14.14
2023-03-29T01:06:28.526Z,13.89
2023-03-29T01:07:28.589Z,13.77
2023-03-29T01:08:28.642Z,13.69
2023-03-29T01:09:28.681Z,13.55
2023-03-29T01:10:28.755Z,13.33
2023-03-29T01:11:28.795Z,13.47
2023-03-29T01:12:28.815Z,13.37
2023-03-29T01:13:28.858Z,13.24
2023-03-29T01:14:28.904Z,13.15
2023-03-29T01:15:29.060Z,13.07
2023-03-29T01:16:29.068Z,12.87
2023-03-29T01:17:29.072Z,12.55
2023-03-29T01:18:29.140Z,12.40
2023-03-29T01:19:29.189Z,12.67
2023-03-29T01:20:29.243Z,12.51
2023-03-29T01:21:29.326Z,12.82
2023-03-29T01:22:29.359Z,12.85
2023-03-29T01:23:29.417Z,12.59
2023-03-29T01:24:29.485Z,12.61
2023-03-29T01:25:29.591Z,12.50
2023-03-29T01:26:29.594Z,12.80
2023-03-29T01:27:29.665Z,12.86
2023-03-29T01:28:29.730Z,13.12
2023-03-29T01:29:29.867Z,13.23
2023-03-29T01:30:29.853Z,13.43
2023-03-29T01:31:29.941Z,13.25
2023-03-29T01:32:30.006Z,12.96
2023-03-29T01:33:30.036Z,12.63
2023-03-29T01:34:30.088Z,12.79
2023-03-29T01:35:30.158Z,12.45
2023-03-29T01:36:30.277Z,12.81
2023-03-29T01:37:30.269Z,12.60
2023-03-29T01:38:30.336Z,12.51
2023-03-29T01:39:30.437Z,12.69
2023-03-29T01:40:30.472Z,12.50
2023-03-29T01:41:30.539Z,12.73
2023-03-29T01:42:30.573Z,12.52
2023-03-29T01:43:30.615Z,12.92
2023-03-29T01:44:30.696Z,12.76
2023-03-29T01:45:30.746Z,12.78
2023-03-29T01:46:30.846Z,12.52
2023-03-29T01:47:30.887Z,12.71
2023-03-29T01:48:30.929Z,12.59
2023-03-29T01:49:30.989Z,12.70
2023-03-29T01:50:31.062Z,12.78
2023-03-29T01:51:31.988Z,12.97
2023-03-29T01:52:31.164Z,12.91
2023-03-29T01:53:31.220Z,13.26
2023-03-29T01:54:31.286Z,13.03
2023-03-29T01:55:31.337Z,13.37
2023-03-29T01:56:31.386Z,13.08
2023-03-29T01:57:31.460Z,12.88
2023-03-29T01:58:31.505Z,13.14
2023-03-29T01:59:31.566Z,13.31
2023-03-29T02:00:31.631Z,13.16
2023-03-29T02:01:32.650Z,13.25
2023-03-29T02:02:31.880Z,13.01
2023-03-29T02:03:31.879Z,13.22
2023-03-29T02:04:31.869Z,13.22
2023-03-29T02:05:31.938Z,13.32
2023-03-29T02:06:31.995Z,13.46
2023-03-29T02:07:32.049Z,13.19
2023-03-29T02:08:32.124Z,13.03
2023-03-29T02:09:32.196Z,13.28
2023-03-29T02:10:32.228Z,13.34
2023-03-29T02:11:32.287Z,13.28
2023-03-29T02:12:32.356Z,13.43
2023-03-29T02:13:32.409Z,13.21
2023-03-29T02:14:32.460Z,13.34
2023-03-29T02:15:32.548Z,13.73
2023-03-29T02:16:32.578Z,13.29
2023-03-29T02:17:32.671Z,13.01
2023-03-29T02:18:32.699Z,13.79
2023-03-29T02:19:32.965Z,13.37
2023-03-29T02:20:32.814Z,13.23
2023-03-29T02:21:32.868Z,13.20
2023-03-29T02:22:32.932Z,12.96
2023-03-29T02:23:33.006Z,12.81
2023-03-29T02:24:33.096Z,12.66
2023-03-29T02:25:33.101Z,12.67
2023-03-29T02:26:33.157Z,12.63
2023-03-29T02:27:33.218Z,12.59
2023-03-29T02:28:33.299Z,12.50
2023-03-29T02:29:33.342Z,12.23
2023-03-29T02:30:33.408Z,12.15
2023-03-29T02:31:33.492Z,12.44
2023-03-29T02:32:33.557Z,12.11
2023-03-29T02:33:33.584Z,12.05
2023-03-29T02:34:33.639Z,12.13
2023-03-29T02:35:33.718Z,11.97
2023-03-29T02:36:33.768Z,11.90
2023-03-29T02:37:33.807Z,11.81
2023-03-29T02:38:33.888Z,11.66
2023-03-29T02:39:33.917Z,11.70
2023-03-29T02:40:34.000Z,12.06
2023-03-29T02:41:34.049Z,12.18
2023-03-29T02:42:34.094Z,12.18
2023-03-29T02:43:34.215Z,12.34
2023-03-29T02:44:34.225Z,12.32
2023-03-29T02:45:34.292Z,12.02
2023-03-29T02:46:34.524Z,11.96
2023-03-29T02:47:34.409Z,11.48
2023-03-29T02:48:34.473Z,11.84
2023-03-29T02:49:34.524Z,11.76
2023-03-29T02:50:34.581Z,11.60
2023-03-29T02:51:34.644Z,11.65
2023-03-29T02:52:35.463Z,12.06
2023-03-29T02:53:34.762Z,11.92
2023-03-29T02:54:34.820Z,11.89
2023-03-29T02:55:34.980Z,11.77
2023-03-29T02:56:34.932Z,11.83
2023-03-29T02:57:35.055Z,11.81
2023-03-29T02:58:35.060Z,12.24
2023-03-29T02:59:35.120Z,11.86
2023-03-29T03:00:35.170Z,10.94
2023-03-29T03:01:35.291Z,11.21
2023-03-29T03:02:35.384Z,10.99
2023-03-29T03:03:35.425Z,10.87
2023-03-29T03:04:35.367Z,11.00
2023-03-29T03:05:35.424Z,10.82
2023-03-29T03:06:35.470Z,10.82
2023-03-29T03:07:35.511Z,10.88
2023-03-29T03:08:35.560Z,10.93
2023-03-29T03:09:35.596Z,11.10
2023-03-29T03:10:35.656Z,11.06
2023-03-29T03:11:35.680Z,10.81
2023-03-29T03:12:35.719Z,11.13
2023-03-29T03:13:35.771Z,11.17
2023-03-29T03:14:35.812Z,11.38
2023-03-29T03:15:35.919Z,11.46
2023-03-29T03:16:35.911Z,11.54
2023-03-29T03:17:35.954Z,11.48
2023-03-29T03:18:35.939Z,11.67
2023-03-29T03:19:35.961Z,11.41
2023-03-29T03:20:36.981Z,11.02
2023-03-29T03:21:36.024Z,11.12
2023-03-29T03:22:36.059Z,11.55
2023-03-29T03:23:36.088Z,11.55
2023-03-29T03:24:36.111Z,11.83
2023-03-29T03:25:36.139Z,12.01
2023-03-29T03:26:36.157Z,11.94
2023-03-29T03:27:36.182Z,11.93
2023-03-29T03:28:36.210Z,11.90
2023-03-29T03:29:36.240Z,11.95
2023-03-29T03:30:36.984Z,11.99
2023-03-29T03:31:36.343Z,11.98
2023-03-29T03:32:36.364Z,11.89
2023-03-29T03:33:36.321Z,12.13
2023-03-29T03:34:36.342Z,11.53
2023-03-29T03:35:36.375Z,11.56
2023-03-29T03:36:36.500Z,11.82
2023-03-29T03:37:36.406Z,11.96
2023-03-29T03:38:36.427Z,11.80
2023-03-29T03:39:36.433Z,11.88
2023-03-29T03:40:36.441Z,11.88
2023-03-29T03:41:36.517Z,12.02
2023-03-29T03:42:36.464Z,12.11
2023-03-29T03:43:36.487Z,12.03
2023-03-29T03:44:36.487Z,12.11
2023-03-29T03:45:36.526Z,11.77
2023-03-29T03:46:36.505Z,11.81
2023-03-29T03:47:36.516Z,11.88
2023-03-29T03:48:36.525Z,11.97
2023-03-29T03:49:36.526Z,11.91
2023-03-29T03:50:36.536Z,11.97
2023-03-29T03:51:36.539Z,12.10
2023-03-29T03:52:36.540Z,11.87
2023-03-29T03:53:36.560Z,11.44
2023-03-29T03:54:36.559Z,11.42
2023-03-29T03:55:36.564Z,11.26
2023-03-29T03:56:36.561Z,11.35
2023-03-29T03:57:36.994Z,11.31
2023-03-29T03:58:36.574Z,10.72
2023-03-29T03:59:36.569Z,10.89
2023-03-29T04:00:36.580Z,11.12
2023-03-29T04:01:36.576Z,11.10
2023-03-29T04:02:36.727Z,11.33
2023-03-29T04:03:36.702Z,11.10
2023-03-29T04:04:36.652Z,11.11
2023-03-29T04:05:36.618Z,11.13
2023-03-29T04:06:36.629Z,11.06
2023-03-29T04:07:36.633Z,10.85
2023-03-29T04:08:36.649Z,10.81
2023-03-29T04:09:36.659Z,10.44
2023-03-29T04:10:36.661Z,10.55
2023-03-29T04:11:36.678Z,10.42
2023-03-29T04:12:36.684Z,10.40
2023-03-29T04:13:36.697Z,10.49
2023-03-29T04:14:36.707Z,10.45
2023-03-29T04:15:36.718Z,10.44
2023-03-29T04:16:36.722Z,10.24
2023-03-29T04:17:36.811Z,10.37
2023-03-29T04:18:36.822Z,10.22
2023-03-29T04:19:36.749Z,9.92
2023-03-29T04:20:36.761Z,9.78
2023-03-29T04:21:36.777Z,9.46
2023-03-29T04:22:36.780Z,9.45
2023-03-29T04:23:36.805Z,9.51
2023-03-29T04:24:36.805Z,9.57
2023-03-29T04:25:36.815Z,9.67
2023-03-29T04:26:36.848Z,9.86
2023-03-29T04:27:36.871Z,9.90
2023-03-29T04:28:36.898Z,10.00
2023-03-29T04:29:37.011Z,9.93
2023-03-29T04:30:36.902Z,10.12
2023-03-29T04:31:36.943Z,10.01
2023-03-29T04:32:36.949Z,9.99
2023-03-29T04:33:36.998Z,10.05
2023-03-29T04:34:36.954Z,10.12
2023-03-29T04:35:37.031Z,9.87
2023-03-29T04:36:36.984Z,9.79
2023-03-29T04:37:36.997Z,9.85
2023-03-29T04:38:37.010Z,9.71
2023-03-29T04:39:37.023Z,9.66
2023-03-29T04:40:37.042Z,9.60
2023-03-29T04:41:37.056Z,9.47
2023-03-29T04:42:37.075Z,9.24
2023-03-29T04:43:39.725Z,8.96
2023-03-29T04:44:37.125Z,8.86
2023-03-29T04:45:37.075Z,8.80
2023-03-29T04:46:37.159Z,8.94
2023-03-29T04:47:37.064Z,8.85
2023-03-29T04:48:37.065Z,8.99
2023-03-29T04:49:37.045Z,9.05
2023-03-29T04:50:37.042Z,9.00
2023-03-29T04:51:37.046Z,9.24
2023-03-29T04:52:37.032Z,9.15
2023-03-29T04:53:37.014Z,9.16
2023-03-29T04:54:37.009Z,9.16
2023-03-29T04:55:37.003Z,9.09
2023-03-29T04:56:36.993Z,8.96
2023-03-29T04:57:37.053Z,8.49
2023-03-29T04:58:36.984Z,8.64
2023-03-29T04:59:36.983Z,8.46
2023-03-29T05:00:36.974Z,8.28
2023-03-29T05:01:37.055Z,8.25
2023-03-29T05:02:37.001Z,8.21
2023-03-29T05:03:36.952Z,8.29
2023-03-29T05:04:36.985Z,8.35
2023-03-29T05:05:36.937Z,8.27
2023-03-29T05:06:37.011Z,8.37
2023-03-29T05:07:36.926Z,8.35
2023-03-29T05:08:36.917Z,8.45
2023-03-29T05:09:36.914Z,8.79
2023-03-29T05:10:36.905Z,8.66
2023-03-29T05:11:36.902Z,8.66
2023-03-29T05:12:36.943Z,8.48
2023-03-29T05:13:36.895Z,8.57
2023-03-29T05:14:36.877Z,8.42
2023-03-29T05:15:37.162Z,8.59
2023-03-29T05:16:36.893Z,8.72
2023-03-29T05:17:36.875Z,8.79
2023-03-29T05:18:36.850Z,8.44
2023-03-29T05:19:36.840Z,7.81
2023-03-29T05:20:36.837Z,7.75
2023-03-29T05:21:36.904Z,7.59
2023-03-29T05:22:36.811Z,7.70
2023-03-29T05:23:36.809Z,8.08
2023-03-29T05:24:36.809Z,8.31
2023-03-29T05:25:36.791Z,8.77
2023-03-29T05:26:36.795Z,9.05
2023-03-29T05:27:36.784Z,8.83
2023-03-29T05:28:36.769Z,8.65
2023-03-29T05:29:36.798Z,4.47
2023-03-29T05:30:36.764Z,2.60
2023-03-29T05:31:36.801Z,1.67
2023-03-29T05:32:36.881Z,1.34
2023-03-29T05:33:36.755Z,1.02
2023-03-29T05:34:36.735Z,1.25
2023-03-29T05:35:36.737Z,1.52
2023-03-29T05:36:36.716Z,1.91
2023-03-29T05:37:36.708Z,2.46
2023-03-29T05:38:36.735Z,2.97
2023-03-29T05:39:37.864Z,3.39
2023-03-29T05:40:36.692Z,4.12
2023-03-29T05:41:36.689Z,4.36
2023-03-29T05:42:36.734Z,5.03
2023-03-29T05:43:36.674Z,5.53
2023-03-29T05:44:36.680Z,6.36
2023-03-29T05:45:36.709Z,7.02
2023-03-29T05:46:36.708Z,7.75
2023-03-29T05:47:36.755Z,8.36
2023-03-29T05:48:36.719Z,9.50
2023-03-29T05:49:36.722Z,10.72
2023-03-29T05:50:36.755Z,12.00
2023-03-29T05:51:36.820Z,13.35
2023-03-29T05:52:36.862Z,14.75
2023-03-29T05:53:36.916Z,16.72
2023-03-29T05:54:36.979Z,13.93
2023-03-29T05:55:37.042Z,11.09
2023-03-29T05:56:37.065Z,5.31
2023-03-29T05:57:37.072Z,4.99
2023-03-29T05:58:37.073Z,5.59
2023-03-29T05:59:37.207Z,6.94
2023-03-29T06:00:37.079Z,8.39
2023-03-29T06:01:37.082Z,9.66
2023-03-29T06:02:37.180Z,10.94
2023-03-29T06:03:37.351Z,12.14
2023-03-29T06:04:37.391Z,13.22
2023-03-29T06:05:37.393Z,14.22
2023-03-29T06:06:38.041Z,15.84
2023-03-29T06:07:37.373Z,17.66
2023-03-29T06:08:37.403Z,19.10
2023-03-29T06:09:37.434Z,20.95
2023-03-29T06:10:37.471Z,22.57
2023-03-29T06:11:37.498Z,24.34
2023-03-29T06:12:37.645Z,26.15
2023-03-29T06:13:37.534Z,28.12
2023-03-29T06:14:38.054Z,29.81
2023-03-29T06:15:37.550Z,32.26
2023-03-29T06:16:37.694Z,34.43
2023-03-29T06:17:37.684Z,36.45
2023-03-29T06:18:37.584Z,40.03
2023-03-29T06:19:37.584Z,41.78
2023-03-29T06:20:37.588Z,43.96
2023-03-29T06:21:37.587Z,46.69
2023-03-29T06:22:37.590Z,45.11
2023-03-29T06:23:37.622Z,51.91
2023-03-29T06:24:37.611Z,52.35
2023-03-29T06:25:37.623Z,30.81
2023-03-29T06:26:37.646Z,21.48
2023-03-29T06:27:37.681Z,20.02
2023-03-29T06:28:37.699Z,19.46
2023-03-29T06:29:37.767Z,22.05
2023-03-29T06:30:37.773Z,23.10
2023-03-29T06:31:37.907Z,24.32
2023-03-29T06:32:37.889Z,25.81
2023-03-29T06:33:37.860Z,27.63
2023-03-29T06:34:38.666Z,29.30
2023-03-29T06:35:38.488Z,30.02
2023-03-29T06:36:38.891Z,30.06
2023-03-29T06:37:37.893Z,30.30
2023-03-29T06:38:39.907Z,30.37
2023-03-29T06:39:37.880Z,30.71
2023-03-29T06:40:37.900Z,32.04
2023-03-29T06:41:37.866Z,33.43
2023-03-29T06:42:37.866Z,33.84
2023-03-29T06:43:38.725Z,33.22
2023-03-29T06:44:37.838Z,32.71
2023-03-29T06:45:37.849Z,33.73
2023-03-29T06:46:37.883Z,35.02
2023-03-29T06:47:37.830Z,36.41
2023-03-29T06:48:37.817Z,37.21
2023-03-29T06:49:37.816Z,38.30
2023-03-29T06:50:37.806Z,38.06
2023-03-29T06:51:37.805Z,38.34
2023-03-29T06:52:37.794Z,39.42
2023-03-29T06:53:37.797Z,36.36
2023-03-29T06:54:38.564Z,38.56
2023-03-29T06:55:37.828Z,38.12
2023-03-29T06:56:37.897Z,38.55
2023-03-29T06:57:37.906Z,37.45
2023-03-29T06:58:37.879Z,37.19
2023-03-29T06:59:37.883Z,36.32
2023-03-29T07:00:37.972Z,37.38
2023-03-29T07:01:37.957Z,37.55
2023-03-29T07:02:37.945Z,37.66
2023-03-29T07:03:37.950Z,37.57
2023-03-29T07:04:38.022Z,35.54
2023-03-29T07:05:37.974Z,37.49
2023-03-29T07:06:37.995Z,37.39
2023-03-29T07:07:38.081Z,38.59
2023-03-29T07:08:38.022Z,40.37
2023-03-29T07:09:38.044Z,41.46
2023-03-29T07:10:38.060Z,42.39
2023-03-29T07:11:38.087Z,42.09
2023-03-29T07:12:38.103Z,43.00
2023-03-29T07:13:38.111Z,43.11
2023-03-29T07:14:38.139Z,43.84
2023-03-29T07:15:38.135Z,42.57
2023-03-29T07:16:38.278Z,43.25
2023-03-29T07:17:38.267Z,41.81
2023-03-29T07:18:38.455Z,40.77
2023-03-29T07:19:38.327Z,39.80
2023-03-29T07:20:38.281Z,36.26
2023-03-29T07:21:38.295Z,21.16
2023-03-29T07:22:38.328Z,17.99
2023-03-29T07:23:38.369Z,7.14
2023-03-29T07:24:38.396Z,4.58
2023-03-29T07:25:38.425Z,3.95
2023-03-29T07:26:39.307Z,3.65
2023-03-29T07:27:38.427Z,3.62
2023-03-29T07:28:38.441Z,3.81
2023-03-29T07:29:38.435Z,3.92
2023-03-29T07:30:38.454Z,4.56
2023-03-29T07:31:38.442Z,4.58
2023-03-29T07:32:38.658Z,4.63
2023-03-29T07:33:38.558Z,5.28
2023-03-29T07:34:38.560Z,5.90
2023-03-29T07:35:38.605Z,5.73
2023-03-29T07:36:38.647Z,6.03
2023-03-29T07:37:38.698Z,6.83
2023-03-29T07:38:38.751Z,7.12
2023-03-29T07:39:38.852Z,7.19
2023-03-29T07:40:38.849Z,7.92
2023-03-29T07:41:38.898Z,7.92
2023-03-29T07:42:38.950Z,7.31
2023-03-29T07:43:38.992Z,7.41
2023-03-29T07:44:39.049Z,7.59
2023-03-29T07:45:40.145Z,9.00
2023-03-29T07:46:39.164Z,8.61
2023-03-29T07:47:39.228Z,9.00
2023-03-29T07:48:39.218Z,9.50
2023-03-29T07:49:39.262Z,10.49
2023-03-29T07:50:40.083Z,10.53
2023-03-29T07:51:40.081Z,10.33
2023-03-29T07:52:39.369Z,11.39
2023-03-29T07:53:39.407Z,11.51
2023-03-29T07:54:39.446Z,12.00
2023-03-29T07:55:39.461Z,11.39
2023-03-29T07:56:39.548Z,11.50
2023-03-29T07:57:39.522Z,11.54
2023-03-29T07:58:39.550Z,11.99
2023-03-29T07:59:40.094Z,11.10
2023-03-29T08:00:39.716Z,11.37
2023-03-29T08:01:39.642Z,12.03
2023-03-29T08:02:39.744Z,11.97
2023-03-29T08:03:39.719Z,11.41
2023-03-29T08:04:39.778Z,12.31
2023-03-29T08:05:41.702Z,13.08
2023-03-29T08:06:39.793Z,12.93
2023-03-29T08:07:39.827Z,13.77
2023-03-29T08:08:39.844Z,13.94
2023-03-29T08:09:39.848Z,14.58
2023-03-29T08:10:39.870Z,14.64
2023-03-29T08:11:39.906Z,13.61
2023-03-29T08:12:40.101Z,12.92
2023-03-29T08:13:39.950Z,9.20
2023-03-29T08:14:39.996Z,9.28
2023-03-29T08:15:40.125Z,6.34
2023-03-29T08:16:40.126Z,3.08
2023-03-29T08:17:40.165Z,1.89
2023-03-29T08:18:40.180Z,1.56
2023-03-29T08:19:40.209Z,1.60
2023-03-29T08:20:41.207Z,1.16
2023-03-29T08:21:40.209Z,1.29
2023-03-29T08:22:40.206Z,1.50
2023-03-29T08:23:40.183Z,1.63
2023-03-29T08:24:40.177Z,1.91
2023-03-29T08:25:40.179Z,2.38
2023-03-29T08:26:40.160Z,2.76
2023-03-29T08:27:41.097Z,2.63
2023-03-29T08:28:40.156Z,3.13
2023-03-29T08:29:40.144Z,3.81
2023-03-29T08:30:40.202Z,4.34
2023-03-29T08:31:40.205Z,5.03
2023-03-29T08:32:40.173Z,5.75
2023-03-29T08:33:40.609Z,6.37
2023-03-29T08:34:40.211Z,6.90
2023-03-29T08:35:40.362Z,7.47
2023-03-29T08:36:40.316Z,8.09
2023-03-29T08:37:40.341Z,8.89
2023-03-29T08:38:40.357Z,9.73
2023-03-29T08:39:40.380Z,10.30
2023-03-29T08:40:40.407Z,11.05
2023-03-29T08:41:40.418Z,11.74
2023-03-29T08:42:40.475Z,12.22
2023-03-29T08:43:40.440Z,12.86
2023-03-29T08:44:40.436Z,12.90
2023-03-29T08:45:40.432Z,13.06
2023-03-29T08:46:40.698Z,13.57
2023-03-29T08:47:40.433Z,14.45
2023-03-29T08:48:40.408Z,16.29
2023-03-29T08:49:40.460Z,17.17
2023-03-29T08:50:40.426Z,18.21
2023-03-29T08:51:40.400Z,19.17
2023-03-29T08:52:40.384Z,20.13
2023-03-29T08:53:40.371Z,21.10
2023-03-29T08:54:40.378Z,21.52
2023-03-29T08:55:40.366Z,22.88
2023-03-29T08:56:41.146Z,23.66
2023-03-29T08:57:40.356Z,24.51
2023-03-29T08:58:40.359Z,26.25
2023-03-29T08:59:40.332Z,27.34
2023-03-29T09:00:40.330Z,28.55
2023-03-29T09:01:40.427Z,28.62
2023-03-29T09:02:40.373Z,30.19
2023-03-29T09:03:40.358Z,30.93
2023-03-29T09:04:40.360Z,32.74
2023-03-29T09:05:40.423Z,34.42
2023-03-29T09:06:40.501Z,35.35
2023-03-29T09:07:40.540Z,35.95
2023-03-29T09:08:40.612Z,37.56
2023-03-29T09:09:40.698Z,38.65
2023-03-29T09:10:40.715Z,38.20
2023-03-29T09:11:40.771Z,40.24
2023-03-29T09:12:40.820Z,43.75
2023-03-29T09:13:40.879Z,45.31
2023-03-29T09:14:41.615Z,47.13
2023-03-29T09:15:41.017Z,47.26
2023-03-29T09:16:41.130Z,49.23
2023-03-29T09:17:41.126Z,49.63
2023-03-29T09:18:41.118Z,48.69
2023-03-29T09:19:42.133Z,51.19
2023-03-29T09:20:41.212Z,51.95
2023-03-29T09:21:41.259Z,53.38
2023-03-29T09:22:41.309Z,53.24
2023-03-29T09:23:41.348Z,53.93
2023-03-29T09:24:41.410Z,53.22
2023-03-29T09:25:52.595Z,54.04
2023-03-29T09:26:42.467Z,54.12
2023-03-29T09:27:41.453Z,54.24
2023-03-29T09:28:41.466Z,54.26
2023-03-29T09:29:41.447Z,53.64
2023-03-29T09:30:41.481Z,54.68
2023-03-29T09:31:41.468Z,53.66
2023-03-29T09:32:41.490Z,52.24
2023-03-29T09:33:41.411Z,51.98
2023-03-29T09:34:41.444Z,52.38
2023-03-29T09:35:41.443Z,51.61
2023-03-29T09:36:41.402Z,50.43
2023-03-29T09:37:41.390Z,50.15
2023-03-29T09:38:41.387Z,49.74
2023-03-29T09:39:41.384Z,49.40
2023-03-29T09:40:41.377Z,48.76
2023-03-29T09:41:41.371Z,48.58
2023-03-29T09:42:41.382Z,48.50
2023-03-29T09:43:41.407Z,47.71
2023-03-29T09:44:41.418Z,47.83
2023-03-29T09:45:41.453Z,47.15
2023-03-29T09:46:42.414Z,47.16
2023-03-29T09:47:41.474Z,46.30
2023-03-29T09:48:41.383Z,45.07
2023-03-29T09:49:42.129Z,46.25
2023-03-29T09:50:42.127Z,44.88
2023-03-29T09:51:41.370Z,44.44
2023-03-29T09:52:41.358Z,44.61
2023-03-29T09:53:41.365Z,44.11
2023-03-29T09:54:41.352Z,43.98
2023-03-29T09:55:41.343Z,43.33
2023-03-29T09:56:41.370Z,42.87
2023-03-29T09:57:41.322Z,43.46
2023-03-29T09:58:41.325Z,41.96
2023-03-29T09:59:41.314Z,42.40
2023-03-29T10:00:41.310Z,41.18
2023-03-29T10:01:41.335Z,40.98
2023-03-29T10:02:41.334Z,40.26
2023-03-29T10:03:41.294Z,40.19
2023-03-29T10:04:41.419Z,41.23
2023-03-29T10:05:42.143Z,38.82
2023-03-29T10:06:41.351Z,39.08
2023-03-29T10:07:41.265Z,38.68
2023-03-29T10:08:41.263Z,38.60
2023-03-29T10:09:41.284Z,38.72
2023-03-29T10:10:41.248Z,38.05
2023-03-29T10:11:41.244Z,37.81
2023-03-29T10:12:41.248Z,37.51
2023-03-29T10:13:41.272Z,37.18
2023-03-29T10:14:41.303Z,36.69
2023-03-29T10:15:41.330Z,36.63
2023-03-29T10:16:41.397Z,37.10
2023-03-29T10:17:41.368Z,34.91
2023-03-29T10:18:41.419Z,35.98
2023-03-29T10:19:41.413Z,35.48
2023-03-29T10:20:41.445Z,34.52
2023-03-29T10:21:41.474Z,34.08
2023-03-29T10:22:41.506Z,33.93
2023-03-29T10:23:41.538Z,32.49
2023-03-29T10:24:41.560Z,33.70
2023-03-29T10:25:42.599Z,32.79
2023-03-29T10:26:41.602Z,31.64
2023-03-29T10:27:41.629Z,31.61
2023-03-29T10:28:41.649Z,31.92
2023-03-29T10:29:41.677Z,30.56
2023-03-29T10:30:41.720Z,30.30
2023-03-29T10:31:41.796Z,28.86
2023-03-29T10:32:41.888Z,29.91
2023-03-29T10:33:41.783Z,29.33
2023-03-29T10:34:41.797Z,29.74
2023-03-29T10:35:41.978Z,28.96
2023-03-29T10:36:41.839Z,28.86
2023-03-29T10:37:41.853Z,29.23
2023-03-29T10:38:41.886Z,28.54
2023-03-29T10:39:41.904Z,28.15
2023-03-29T10:40:41.924Z,28.51
2023-03-29T10:41:41.946Z,26.74
2023-03-29T10:42:41.978Z,26.28
2023-03-29T10:43:41.994Z,26.18
2023-03-29T10:44:42.020Z,25.26
2023-03-29T10:45:42.782Z,24.47
2023-03-29T10:46:42.147Z,23.97
2023-03-29T10:47:42.110Z,25.44
2023-03-29T10:48:42.121Z,24.83
2023-03-29T10:49:42.166Z,25.16
2023-03-29T10:50:42.189Z,25.33
2023-03-29T10:51:42.245Z,24.60
2023-03-29T10:52:42.263Z,24.61
2023-03-29T10:53:42.255Z,23.94
2023-03-29T10:54:42.343Z,23.71
2023-03-29T10:55:43.149Z,24.09
2023-03-29T10:56:42.412Z,24.12
2023-03-29T10:57:42.350Z,23.46
2023-03-29T10:58:42.386Z,22.19
2023-03-29T10:59:42.409Z,21.82
2023-03-29T11:00:42.680Z,22.58
2023-03-29T11:01:42.549Z,22.53
2023-03-29T11:02:42.574Z,23.01
2023-03-29T11:03:42.580Z,22.67
2023-03-29T11:04:42.550Z,22.53
2023-03-29T11:05:42.583Z,22.11
2023-03-29T11:06:42.611Z,21.76
2023-03-29T11:07:42.635Z,20.94
2023-03-29T11:08:42.669Z,21.49
2023-03-29T11:09:42.715Z,21.55
2023-03-29T11:10:42.738Z,20.09
2023-03-29T11:11:42.765Z,20.41
2023-03-29T11:12:42.784Z,20.00
2023-03-29T11:13:42.867Z,19.75
2023-03-29T11:14:42.853Z,19.26
2023-03-29T11:15:42.915Z,18.86
2023-03-29T11:16:42.909Z,18.54
2023-03-29T11:17:42.970Z,18.33
2023-03-29T11:18:42.990Z,18.22
2023-03-29T11:19:43.018Z,17.79
2023-03-29T11:20:43.060Z,18.11
2023-03-29T11:21:43.094Z,18.02
2023-03-29T11:22:43.732Z,17.56
2023-03-29T11:23:43.165Z,17.42
2023-03-29T11:24:43.195Z,17.80
2023-03-29T11:25:43.229Z,17.44
2023-03-29T11:26:43.262Z,17.41
2023-03-29T11:27:43.297Z,17.83
2023-03-29T11:28:43.324Z,17.82
2023-03-29T11:29:43.361Z,17.54
2023-03-29T11:30:43.405Z,16.87
2023-03-29T11:31:43.479Z,16.83
2023-03-29T11:32:43.516Z,16.90
2023-03-29T11:33:43.492Z,16.85
2023-03-29T11:34:43.531Z,16.86
2023-03-29T11:35:43.597Z,16.83
2023-03-29T11:36:43.605Z,16.18
2023-03-29T11:37:43.641Z,16.13
2023-03-29T11:38:45.224Z,16.89
2023-03-29T11:39:43.725Z,16.52
2023-03-29T11:40:43.780Z,16.85
2023-03-29T11:41:43.833Z,16.63
2023-03-29T11:42:43.874Z,16.43
2023-03-29T11:43:43.908Z,16.07
2023-03-29T11:44:43.959Z,16.51
2023-03-29T11:45:44.006Z,16.09
2023-03-29T11:46:44.086Z,16.06
2023-03-29T11:47:44.181Z,15.83
2023-03-29T11:48:44.139Z,15.77
2023-03-29T11:49:44.278Z,15.49
2023-03-29T11:50:44.271Z,15.37
2023-03-29T11:51:44.294Z,15.67
2023-03-29T11:52:44.342Z,15.95
2023-03-29T11:53:44.388Z,15.47
2023-03-29T11:54:44.444Z,15.33
2023-03-29T11:55:44.510Z,15.50
2023-03-29T11:56:44.588Z,15.27
2023-03-29T11:57:44.608Z,14.90
2023-03-29T11:58:44.668Z,14.96
2023-03-29T11:59:44.733Z,15.21
2023-03-29T12:00:44.800Z,14.96
2023-03-29T12:01:44.872Z,14.72
2023-03-29T12:02:45.031Z,15.00
2023-03-29T12:03:46.898Z,14.98
2023-03-29T12:04:45.050Z,15.10
2023-03-29T12:05:45.108Z,15.02
2023-03-29T12:06:45.144Z,14.69
2023-03-29T12:07:45.211Z,13.82
2023-03-29T12:08:45.254Z,13.63
2023-03-29T12:09:45.310Z,13.38
2023-03-29T12:10:45.373Z,13.78
2023-03-29T12:11:45.422Z,13.89
2023-03-29T12:12:45.495Z,13.85
2023-03-29T12:13:45.544Z,13.86
2023-03-29T12:14:45.594Z,14.09
2023-03-29T12:15:45.664Z,13.75
2023-03-29T12:16:45.801Z,13.68
2023-03-29T12:17:45.821Z,13.78
2023-03-29T12:18:46.702Z,13.73
2023-03-29T12:19:45.898Z,13.33
2023-03-29T12:20:45.968Z,13.30
2023-03-29T12:21:46.007Z,13.42
2023-03-29T12:22:46.068Z,13.65
2023-03-29T12:23:46.127Z,13.52
2023-03-29T12:24:46.194Z,13.44
2023-03-29T12:25:46.252Z,13.55
2023-03-29T12:26:46.292Z,13.32
2023-03-29T12:27:46.367Z,12.93
2023-03-29T12:28:46.425Z,12.71
2023-03-29T12:29:46.523Z,12.63
2023-03-29T12:30:46.542Z,12.48
2023-03-29T12:31:46.639Z,12.41
2023-03-29T12:32:46.782Z,12.24
2023-03-29T12:33:46.718Z,12.24
2023-03-29T12:34:46.783Z,11.37
2023-03-29T12:35:46.859Z,10.45
2023-03-29T12:36:46.897Z,10.00
2023-03-29T12:37:46.974Z,9.39
2023-03-29T12:38:46.962Z,8.97
2023-03-29T12:39:46.983Z,8.83
2023-03-29T12:40:47.083Z,8.73
2023-03-29T12:41:47.029Z,8.54
2023-03-29T12:42:47.037Z,8.57
2023-03-29T12:43:47.083Z,8.49
2023-03-29T12:44:47.123Z,8.39
2023-03-29T12:45:47.231Z,8.48
2023-03-29T12:46:47.268Z,8.61
2023-03-29T12:47:47.369Z,8.75
2023-03-29T12:48:47.313Z,8.91
2023-03-29T12:49:47.374Z,8.77
2023-03-29T12:50:47.411Z,8.85
2023-03-29T12:51:47.438Z,8.57
2023-03-29T12:52:47.464Z,8.48
2023-03-29T12:53:47.505Z,8.32
2023-03-29T12:54:47.594Z,8.36
2023-03-29T12:55:47.644Z,8.41
2023-03-29T12:56:47.743Z,8.51
2023-03-29T12:57:47.687Z,8.56
2023-03-29T12:58:47.737Z,8.58